Time;durP1;ratioP1;P1;durP2;ratioP2;P2;SDS_P1;SDS_P2;PMS_P1;PMS_P2;Temp;Humidity;BMP_temperature;BMP_pressure;BME280_temperature;BME280_humidity;BME280_pressure;Samples;Min_cycle;Max_cycle;Signal;HPM_P1;HPM_P2
2022/01/22 00:01:20;;;;;;;2.97;1.70;;;;;;;;;;5006623;28;20218;-66
2022/01/22 00:03:50;;;;;;;5.20;1.80;;;;;;;;;;5026061;28;20249;-66
2022/01/22 00:06:18;;;;;;;3.87;1.90;;;;;;;;;;5028370;28;20662;-66
2022/01/22 00:08:48;;;;;;;3.60;1.60;;;;;;;;;;5011046;28;20206;-66
2022/01/22 00:11:17;;;;;;;4.10;1.90;;;;;;;;;;5027923;28;20210;-66
2022/01/22 00:16:34;;;;;;;3.13;1.70;;;;;;;;;;5025249;28;20203;-66
2022/01/22 00:19:09;;;;;;;3.20;1.50;;;;;;;;;;5027203;28;20286;-66
2022/01/22 00:21:40;;;;;;;2.97;1.60;;;;;;;;;;5026300;28;20956;-66
2022/01/22 00:24:13;;;;;;;2.90;1.70;;;;;;;;;;5026336;28;20536;-66
2022/01/22 00:26:46;;;;;;;2.33;1.50;;;;;;;;;;5019133;28;20214;-65
2022/01/22 00:29:29;;;;;;;2.30;1.47;;;;;;;;;;5020709;28;20279;-66
2022/01/22 00:31:57;;;;;;;2.80;1.63;;;;;;;;;;5024264;28;20253;-66
2022/01/22 00:34:28;;;;;;;3.23;1.63;;;;;;;;;;5024151;28;20211;-66
2022/01/22 00:36:59;;;;;;;3.60;1.87;;;;;;;;;;5024414;28;20953;-66
2022/01/22 00:39:30;;;;;;;4.10;1.77;;;;;;;;;;5026532;28;20201;-65
2022/01/22 00:42:27;;;;;;;3.83;1.57;;;;;;;;;;5026718;28;20257;-66
2022/01/22 00:45:02;;;;;;;1.70;1.30;;;;;;;;;;5027020;28;20209;-66
2022/01/22 00:47:31;;;;;;;2.60;1.40;;;;;;;;;;4998020;28;20215;-65
2022/01/22 00:50:02;;;;;;;2.63;1.30;;;;;;;;;;5032945;28;20215;-66
2022/01/22 00:52:34;;;;;;;2.20;1.50;;;;;;;;;;5026811;28;20191;-66
2022/01/22 00:55:05;;;;;;;3.27;1.40;;;;;;;;;;5026699;28;20231;-66
2022/01/22 00:57:36;;;;;;;2.53;1.80;;;;;;;;;;5032627;28;20648;-66
2022/01/22 01:00:08;;;;;;;2.60;1.60;;;;;;;;;;5023416;28;20219;-65
2022/01/22 01:02:38;;;;;;;2.77;1.47;;;;;;;;;;5020442;28;20283;-66
2022/01/22 01:05:10;;;;;;;1.97;1.23;;;;;;;;;;5022900;28;20191;-66
2022/01/22 01:07:41;;;;;;;2.43;1.40;;;;;;;;;;5012034;28;20691;-66
2022/01/22 01:10:17;;;;;;;1.93;1.33;;;;;;;;;;5019151;28;20229;-66
2022/01/22 01:12:47;;;;;;;4.27;1.60;;;;;;;;;;5032094;28;21128;-65
2022/01/22 01:15:54;;;;;;;2.80;1.30;;;;;;;;;;5026621;28;20226;-66
2022/01/22 01:32:48;;;;;;;2.10;1.40;;;;;;;;;;5026571;28;20205;-66
2022/01/22 01:35:20;;;;;;;3.60;1.20;;;;;;;;;;5026313;28;20219;-65
2022/01/22 01:38:09;;;;;;;3.07;1.47;;;;;;;;;;5026099;28;20350;-65
2022/01/22 01:40:43;;;;;;;2.93;1.40;;;;;;;;;;5030590;28;20240;-65
2022/01/22 01:43:35;;;;;;;2.33;1.30;;;;;;;;;;5033807;28;20221;-66
2022/01/22 01:46:20;;;;;;;2.70;1.30;;;;;;;;;;5024331;28;20289;-65
2022/01/22 01:49:11;;;;;;;2.53;1.60;;;;;;;;;;5024224;28;20207;-65
2022/01/22 01:51:50;;;;;;;3.10;1.30;;;;;;;;;;5036056;28;20229;-66
2022/01/22 01:55:10;;;;;;;2.73;1.40;;;;;;;;;;5026857;28;20207;-66
2022/01/22 01:59:53;;;;;;;2.03;1.30;;;;;;;;;;5011482;28;20242;-65
2022/01/22 02:02:27;;;;;;;1.60;1.20;;;;;;;;;;5007948;28;20243;-66
2022/01/22 02:05:09;;;;;;;2.87;1.47;;;;;;;;;;5016762;28;20202;-66
2022/01/22 02:07:48;;;;;;;2.87;1.30;;;;;;;;;;5027095;28;20195;-66
2022/01/22 02:10:25;;;;;;;1.80;1.30;;;;;;;;;;5028051;28;20407;-66
2022/01/22 02:24:26;;;;;;;2.33;1.30;;;;;;;;;;5030018;28;20190;-66
2022/01/22 02:26:58;;;;;;;2.10;1.33;;;;;;;;;;5033555;28;20210;-66
2022/01/22 02:29:29;;;;;;;2.30;1.17;;;;;;;;;;5044674;28;20270;-66
2022/01/22 02:32:43;;;;;;;2.23;1.20;;;;;;;;;;5030404;28;20560;-66
2022/01/22 02:34:54;;;;;;;2.30;1.20;;;;;;;;;;5012514;28;20705;-65
2022/01/22 02:37:24;;;;;;;2.30;1.43;;;;;;;;;;5028964;28;20210;-65
2022/01/22 02:40:08;;;;;;;2.00;1.27;;;;;;;;;;5032650;28;20195;-65
2022/01/22 02:42:48;;;;;;;2.60;1.43;;;;;;;;;;5033409;28;20206;-66
2022/01/22 02:45:22;;;;;;;1.87;1.33;;;;;;;;;;5032493;28;20207;-66
2022/01/22 02:47:52;;;;;;;1.77;1.30;;;;;;;;;;5013832;28;20628;-65
2022/01/22 02:50:21;;;;;;;1.87;1.10;;;;;;;;;;5013974;28;20215;-65
2022/01/22 02:52:52;;;;;;;2.33;1.37;;;;;;;;;;5033705;28;20202;-65
2022/01/22 02:55:22;;;;;;;1.57;1.20;;;;;;;;;;5032713;28;20234;-66
2022/01/22 02:57:50;;;;;;;2.93;1.50;;;;;;;;;;5033060;28;20187;-65
2022/01/22 03:00:22;;;;;;;3.40;1.53;;;;;;;;;;5031829;28;20199;-65
2022/01/22 03:03:02;;;;;;;3.53;1.50;;;;;;;;;;5033470;28;20205;-66
2022/01/22 03:05:35;;;;;;;1.80;1.13;;;;;;;;;;5031832;28;20199;-65
2022/01/22 03:08:09;;;;;;;2.93;1.33;;;;;;;;;;5033734;28;20226;-66
2022/01/22 03:10:46;;;;;;;2.20;1.60;;;;;;;;;;5029515;28;20556;-66
2022/01/22 03:19:13;;;;;;;2.60;1.50;;;;;;;;;;5025327;28;20195;-66
2022/01/22 03:22:13;;;;;;;3.07;1.63;;;;;;;;;;5033481;28;20620;-65
2022/01/22 03:27:36;;;;;;;2.63;1.47;;;;;;;;;;5029604;28;20276;-65
2022/01/22 03:30:06;;;;;;;1.90;1.37;;;;;;;;;;5028439;28;20195;-66
2022/01/22 03:32:50;;;;;;;2.50;1.37;;;;;;;;;;5029521;28;20206;-65
2022/01/22 03:35:34;;;;;;;2.33;1.40;;;;;;;;;;5028242;28;20230;-66
2022/01/22 03:38:17;;;;;;;2.83;1.20;;;;;;;;;;5017263;28;20231;-65
2022/01/22 03:40:49;;;;;;;2.23;1.13;;;;;;;;;;5012319;28;20199;-66
2022/01/22 03:43:22;;;;;;;2.47;1.33;;;;;;;;;;5028919;28;20219;-66
2022/01/22 03:45:53;;;;;;;3.33;1.60;;;;;;;;;;5015057;28;20221;-66
2022/01/22 03:48:24;;;;;;;3.13;1.30;;;;;;;;;;5026368;28;20628;-65
2022/01/22 03:51:02;;;;;;;3.20;2.00;;;;;;;;;;5029398;28;20190;-66
2022/01/22 03:53:52;;;;;;;2.73;1.30;;;;;;;;;;5027399;28;20222;-65
2022/01/22 03:56:26;;;;;;;2.03;1.47;;;;;;;;;;5032913;28;20314;-66
2022/01/22 03:58:56;;;;;;;1.63;1.13;;;;;;;;;;5029051;28;20207;-65
2022/01/22 04:04:22;;;;;;;2.03;1.13;;;;;;;;;;5028265;28;20230;-66
2022/01/22 04:07:23;;;;;;;1.43;1.30;;;;;;;;;;5030507;28;20203;-66
2022/01/22 04:09:45;;;;;;;1.70;1.30;;;;;;;;;;5022878;28;20214;-66
2022/01/22 04:12:23;;;;;;;1.67;1.23;;;;;;;;;;5038942;28;20209;-65
2022/01/22 04:15:01;;;;;;;3.03;1.40;;;;;;;;;;5025720;28;20207;-65
2022/01/22 04:24:49;;;;;;;2.40;1.37;;;;;;;;;;5028231;28;20682;-66
2022/01/22 04:26:29;;;;;;;2.93;1.70;;;;;;;;;;5032550;28;20214;-65
2022/01/22 04:29:04;;;;;;;2.03;1.80;;;;;;;;;;5028697;28;20253;-65
2022/01/22 04:31:35;;;;;;;1.70;1.60;;;;;;;;;;5029414;28;20265;-65
2022/01/22 04:34:05;;;;;;;2.93;1.43;;;;;;;;;;5014374;28;20292;-65
2022/01/22 04:36:36;;;;;;;1.77;1.40;;;;;;;;;;5025580;28;20285;-65
2022/01/22 04:39:09;;;;;;;1.83;1.50;;;;;;;;;;5028710;28;20253;-65
2022/01/22 04:41:46;;;;;;;2.53;1.60;;;;;;;;;;5029951;28;20191;-65
2022/01/22 04:44:16;;;;;;;1.67;1.30;;;;;;;;;;5026741;28;20218;-65
2022/01/22 04:46:59;;;;;;;2.83;1.57;;;;;;;;;;5025604;28;20218;-65
2022/01/22 04:55:16;;;;;;;2.57;1.40;;;;;;;;;;4976355;28;20761;-66
2022/01/22 04:57:46;;;;;;;1.80;1.57;;;;;;;;;;4965343;28;20228;-66
2022/01/22 05:00:18;;;;;;;1.43;1.30;;;;;;;;;;5024553;28;20321;-66
2022/01/22 05:02:47;;;;;;;3.03;1.97;;;;;;;;;;5007976;28;20264;-67
2022/01/22 05:05:18;;;;;;;2.00;1.50;;;;;;;;;;5034545;28;20252;-65
2022/01/22 05:07:50;;;;;;;2.67;1.43;;;;;;;;;;5025977;28;20191;-65
2022/01/22 05:10:27;;;;;;;1.90;1.60;;;;;;;;;;5017220;28;20213;-65
2022/01/22 05:13:01;;;;;;;2.47;1.77;;;;;;;;;;5022405;28;20280;-65
2022/01/22 05:15:33;;;;;;;3.20;1.93;;;;;;;;;;5016291;28;20211;-65
2022/01/22 05:18:06;;;;;;;2.10;1.73;;;;;;;;;;5025931;28;20222;-65
2022/01/22 05:20:46;;;;;;;6.47;2.30;;;;;;;;;;5022170;28;20187;-65
2022/01/22 05:23:21;;;;;;;2.40;1.80;;;;;;;;;;5037277;28;20281;-65
2022/01/22 05:25:56;;;;;;;2.10;1.70;;;;;;;;;;5029424;28;20564;-65
2022/01/22 05:31:33;;;;;;;2.30;2.10;;;;;;;;;;5027023;28;20869;-65
2022/01/22 05:37:03;;;;;;;2.57;1.87;;;;;;;;;;5025896;28;20266;-65
2022/01/22 05:39:37;;;;;;;2.50;2.00;;;;;;;;;;5024396;28;20628;-66
2022/01/22 05:42:15;;;;;;;3.13;1.80;;;;;;;;;;5010244;28;20302;-65
2022/01/22 05:44:45;;;;;;;2.63;2.07;;;;;;;;;;5041926;28;20229;-65
2022/01/22 05:47:24;;;;;;;2.27;2.00;;;;;;;;;;5029234;28;20199;-65
2022/01/22 05:49:55;;;;;;;2.20;1.83;;;;;;;;;;5012981;28;20215;-66
2022/01/22 05:52:40;;;;;;;2.63;1.90;;;;;;;;;;5028275;28;20199;-66
2022/01/22 06:00:38;;;;;;;2.40;2.20;;;;;;;;;;5022101;28;20206;-65
2022/01/22 06:03:06;;;;;;;2.90;2.50;;;;;;;;;;5034036;28;20199;-65
2022/01/22 06:05:37;;;;;;;2.47;2.20;;;;;;;;;;5027850;28;20211;-65
2022/01/22 06:08:06;;;;;;;3.10;2.13;;;;;;;;;;5041247;28;20211;-65
2022/01/22 06:10:54;;;;;;;2.57;1.93;;;;;;;;;;5024582;28;20199;-65
2022/01/22 06:13:30;;;;;;;2.13;1.93;;;;;;;;;;5015939;28;20210;-65
2022/01/22 06:16:01;;;;;;;3.40;2.20;;;;;;;;;;5013614;28;20266;-65
2022/01/22 06:18:32;;;;;;;4.30;2.23;;;;;;;;;;5022002;28;20673;-65
2022/01/22 06:21:05;;;;;;;2.67;2.00;;;;;;;;;;5029053;28;20202;-65
2022/01/22 06:23:38;;;;;;;3.17;2.23;;;;;;;;;;5025847;28;20273;-65
2022/01/22 06:26:11;;;;;;;2.40;1.90;;;;;;;;;;5006818;28;20199;-65
2022/01/22 06:28:44;;;;;;;3.30;2.33;;;;;;;;;;5023763;28;20206;-65
2022/01/22 06:31:14;;;;;;;4.37;2.37;;;;;;;;;;5026344;28;20235;-65
2022/01/22 06:33:46;;;;;;;2.77;2.20;;;;;;;;;;5012026;28;20698;-66
2022/01/22 06:36:26;;;;;;;2.67;2.13;;;;;;;;;;5030719;28;20242;-65
2022/01/22 06:39:10;;;;;;;2.63;2.40;;;;;;;;;;5030348;28;20202;-65
2022/01/22 06:41:47;;;;;;;3.33;2.27;;;;;;;;;;5010803;28;20196;-65
2022/01/22 06:44:21;;;;;;;3.60;2.33;;;;;;;;;;5027060;28;20203;-66
2022/01/22 06:47:11;;;;;;;3.73;1.90;;;;;;;;;;5009673;28;20201;-65
2022/01/22 06:49:39;;;;;;;2.47;2.10;;;;;;;;;;5023366;28;20535;-65
2022/01/22 06:52:21;;;;;;;3.13;2.20;;;;;;;;;;5035201;28;20210;-65
2022/01/22 06:54:52;;;;;;;3.47;2.60;;;;;;;;;;5016622;28;20203;-65
2022/01/22 06:57:22;;;;;;;4.70;2.80;;;;;;;;;;5012919;28;20242;-66
2022/01/22 06:59:54;;;;;;;4.30;2.60;;;;;;;;;;5031157;28;20198;-66
2022/01/22 07:02:24;;;;;;;2.80;2.50;;;;;;;;;;5009864;28;20226;-65
2022/01/22 07:04:57;;;;;;;3.20;2.90;;;;;;;;;;5029708;28;20199;-66
2022/01/22 07:07:29;;;;;;;4.70;3.57;;;;;;;;;;5029060;28;20567;-66
2022/01/22 07:10:01;;;;;;;3.30;3.00;;;;;;;;;;5039628;28;20207;-65
2022/01/22 07:12:37;;;;;;;4.77;3.10;;;;;;;;;;5021161;28;20203;-66
2022/01/22 07:15:26;;;;;;;3.97;3.23;;;;;;;;;;5036299;28;20202;-66
2022/01/22 07:18:18;;;;;;;4.10;3.20;;;;;;;;;;5014134;28;20207;-67
2022/01/22 07:20:52;;;;;;;3.73;3.00;;;;;;;;;;5033650;28;20217;-66
2022/01/22 07:26:06;;;;;;;4.57;2.90;;;;;;;;;;5035172;28;20207;-66
2022/01/22 07:28:41;;;;;;;3.63;2.60;;;;;;;;;;5009107;28;20366;-66
2022/01/22 07:31:16;;;;;;;3.60;3.20;;;;;;;;;;5032972;28;20237;-66
2022/01/22 07:33:47;;;;;;;3.20;2.87;;;;;;;;;;5035869;28;20199;-66
2022/01/22 07:36:28;;;;;;;4.03;2.90;;;;;;;;;;5034327;28;20673;-65
2022/01/22 07:38:59;;;;;;;3.40;2.70;;;;;;;;;;5027693;28;20655;-66
2022/01/22 07:41:32;;;;;;;4.50;3.40;;;;;;;;;;5036665;28;20625;-66
2022/01/22 07:44:05;;;;;;;3.37;2.80;;;;;;;;;;5021785;28;20203;-67
2022/01/22 07:46:36;;;;;;;3.97;2.87;;;;;;;;;;5032460;28;20207;-67
2022/01/22 07:49:06;;;;;;;3.43;2.83;;;;;;;;;;5028666;28;20210;-67
2022/01/22 07:51:38;;;;;;;3.80;3.30;;;;;;;;;;5037821;28;20214;-67
2022/01/22 07:54:09;;;;;;;4.87;2.73;;;;;;;;;;5020477;28;20218;-67
2022/01/22 07:56:42;;;;;;;5.13;2.70;;;;;;;;;;5024202;28;20353;-67
2022/01/22 07:59:14;;;;;;;2.97;2.60;;;;;;;;;;5025195;28;20586;-67
2022/01/22 08:01:44;;;;;;;2.97;2.67;;;;;;;;;;5015040;28;20214;-67
2022/01/22 08:04:24;;;;;;;3.93;2.70;;;;;;;;;;5017197;28;20210;-67
2022/01/22 08:06:57;;;;;;;2.97;2.33;;;;;;;;;;5009775;28;20230;-66
2022/01/22 08:09:32;;;;;;;3.63;2.73;;;;;;;;;;5021001;28;20222;-66
2022/01/22 08:12:03;;;;;;;3.37;2.60;;;;;;;;;;5006925;28;20273;-67
2022/01/22 08:14:37;;;;;;;2.83;2.53;;;;;;;;;;5015215;28;20211;-67
2022/01/22 08:17:10;;;;;;;3.50;2.63;;;;;;;;;;5018797;28;20442;-67
2022/01/22 08:19:43;;;;;;;5.30;2.93;;;;;;;;;;5019276;28;20203;-67
2022/01/22 08:22:13;;;;;;;3.03;2.63;;;;;;;;;;5016177;28;20192;-66
2022/01/22 08:24:42;;;;;;;5.13;2.90;;;;;;;;;;5012391;28;20216;-66
2022/01/22 08:29:50;;;;;;;5.53;2.90;;;;;;;;;;5009808;28;20211;-66
2022/01/22 08:37:59;;;;;;;3.80;3.03;;;;;;;;;;4996274;28;20235;-65
2022/01/22 08:40:34;;;;;;;5.37;3.30;;;;;;;;;;5004658;28;20223;-67
2022/01/22 08:43:05;;;;;;;4.20;3.20;;;;;;;;;;5000809;28;20242;-67
2022/01/22 08:45:36;;;;;;;8.70;3.60;;;;;;;;;;5001882;28;20257;-67
2022/01/22 08:48:08;;;;;;;5.13;3.57;;;;;;;;;;5003472;28;20212;-66
2022/01/22 08:50:39;;;;;;;5.73;3.30;;;;;;;;;;4997808;28;20222;-66
2022/01/22 08:53:08;;;;;;;6.50;3.93;;;;;;;;;;5006561;28;20211;-67
2022/01/22 08:55:37;;;;;;;6.60;3.20;;;;;;;;;;5003536;28;20203;-67
2022/01/22 08:58:08;;;;;;;5.27;3.60;;;;;;;;;;4997263;28;20553;-66
2022/01/22 09:00:40;;;;;;;7.30;3.30;;;;;;;;;;5000659;28;20214;-65
2022/01/22 09:03:18;;;;;;;7.63;4.03;;;;;;;;;;5003314;28;20692;-65
2022/01/22 09:05:47;;;;;;;5.70;3.30;;;;;;;;;;5003225;28;20546;-66
2022/01/22 09:08:18;;;;;;;6.30;3.17;;;;;;;;;;5007941;28;20211;-67
2022/01/22 09:10:50;;;;;;;6.73;3.47;;;;;;;;;;5004360;28;20218;-65
2022/01/22 09:13:23;;;;;;;8.00;3.03;;;;;;;;;;4997053;28;20234;-65
2022/01/22 09:15:53;;;;;;;4.70;3.23;;;;;;;;;;5002353;28;20215;-65
2022/01/22 09:18:24;;;;;;;4.40;3.17;;;;;;;;;;4983632;28;20220;-65
2022/01/22 09:23:35;;;;;;;5.00;3.23;;;;;;;;;;4996189;28;20198;-65
2022/01/22 09:26:07;;;;;;;7.07;3.83;;;;;;;;;;4970757;28;20676;-65
2022/01/22 09:28:38;;;;;;;5.57;3.63;;;;;;;;;;4987905;28;20240;-65
2022/01/22 09:31:10;;;;;;;4.93;3.70;;;;;;;;;;5020220;28;20236;-66
2022/01/22 09:33:40;;;;;;;4.33;3.33;;;;;;;;;;5021201;28;20218;-66
2022/01/22 09:36:28;;;;;;;4.53;3.30;;;;;;;;;;5022749;28;20218;-66
2022/01/22 09:39:00;;;;;;;5.17;3.33;;;;;;;;;;5027337;28;20214;-65
2022/01/22 09:41:30;;;;;;;8.13;3.37;;;;;;;;;;5028756;28;20223;-71
2022/01/22 09:44:21;;;;;;;5.90;3.23;;;;;;;;;;5025349;28;20206;-69
2022/01/22 09:46:51;;;;;;;2.93;2.60;;;;;;;;;;5027767;28;20195;-68
2022/01/22 09:49:20;;;;;;;5.20;3.47;;;;;;;;;;5005731;28;20204;-68
2022/01/22 09:51:51;;;;;;;4.50;3.67;;;;;;;;;;5028229;28;20222;-67
2022/01/22 09:54:19;;;;;;;4.07;2.57;;;;;;;;;;5028652;28;20285;-69
2022/01/22 09:56:49;;;;;;;5.07;3.27;;;;;;;;;;5031856;28;20656;-68
2022/01/22 09:59:23;;;;;;;5.60;3.43;;;;;;;;;;5009374;28;20203;-69
2022/01/22 10:02:06;;;;;;;4.50;3.17;;;;;;;;;;5035771;28;20798;-68
2022/01/22 10:04:37;;;;;;;6.67;2.97;;;;;;;;;;5008783;28;20198;-69
2022/01/22 10:07:24;;;;;;;4.33;3.00;;;;;;;;;;5023558;28;20690;-71
2022/01/22 10:09:59;;;;;;;4.93;3.03;;;;;;;;;;5042864;28;20520;-71
2022/01/22 10:12:29;;;;;;;4.10;2.63;;;;;;;;;;5025880;28;20808;-69
2022/01/22 10:15:05;;;;;;;5.40;3.07;;;;;;;;;;5030707;28;20202;-69
2022/01/22 10:17:53;;;;;;;3.67;2.47;;;;;;;;;;5011837;28;20226;-69
2022/01/22 10:20:32;;;;;;;3.30;2.53;;;;;;;;;;5018014;28;20187;-70
2022/01/22 10:23:17;;;;;;;3.63;2.47;;;;;;;;;;5028228;28;20619;-69
2022/01/22 10:25:54;;;;;;;4.10;2.60;;;;;;;;;;5032162;28;20214;-70
2022/01/22 10:28:27;;;;;;;3.90;2.80;;;;;;;;;;5007781;28;20203;-71
2022/01/22 10:31:20;;;;;;;3.00;2.03;;;;;;;;;;5030368;28;20239;-69
2022/01/22 10:34:09;;;;;;;4.40;2.70;;;;;;;;;;5011906;28;20206;-69
2022/01/22 10:36:59;;;;;;;2.73;2.23;;;;;;;;;;5018928;28;20773;-69
2022/01/22 10:39:34;;;;;;;3.90;2.33;;;;;;;;;;5036255;28;20214;-68
2022/01/22 10:42:22;;;;;;;2.97;2.63;;;;;;;;;;5038911;28;20593;-71
2022/01/22 10:44:51;;;;;;;24.73;5.67;;;;;;;;;;5041504;28;20564;-63
2022/01/22 10:47:25;;;;;;;20.17;5.00;;;;;;;;;;5026124;28;20203;-64
2022/01/22 10:50:17;;;;;;;19.17;5.77;;;;;;;;;;5033662;28;20223;-64
2022/01/22 10:53:13;;;;;;;18.87;4.93;;;;;;;;;;5030273;28;20223;-63
2022/01/22 10:55:59;;;;;;;14.13;4.83;;;;;;;;;;5025339;28;20202;-64
2022/01/22 10:58:30;;;;;;;11.53;3.97;;;;;;;;;;5018911;28;20230;-64
2022/01/22 11:01:04;;;;;;;8.30;4.20;;;;;;;;;;5029531;28;20238;-64
2022/01/22 11:03:37;;;;;;;8.83;3.70;;;;;;;;;;5017857;28;20203;-66
2022/01/22 11:06:24;;;;;;;9.10;3.43;;;;;;;;;;5025130;28;20758;-64
2022/01/22 11:09:02;;;;;;;9.17;3.80;;;;;;;;;;5008586;28;20203;-66
2022/01/22 11:11:36;;;;;;;9.03;3.80;;;;;;;;;;5026113;28;20201;-65
2022/01/22 11:14:09;;;;;;;6.53;3.70;;;;;;;;;;5019834;28;20211;-65
2022/01/22 11:16:41;;;;;;;6.83;3.10;;;;;;;;;;5026126;28;20198;-68
2022/01/22 11:19:20;;;;;;;8.60;3.37;;;;;;;;;;5027558;28;20201;-67
2022/01/22 11:21:52;;;;;;;7.50;3.63;;;;;;;;;;5012502;28;20430;-67
2022/01/22 11:24:22;;;;;;;5.80;3.37;;;;;;;;;;5026063;28;20215;-68
2022/01/22 11:26:59;;;;;;;6.57;2.60;;;;;;;;;;5012510;28;20250;-66
2022/01/22 11:29:32;;;;;;;5.23;3.00;;;;;;;;;;5026214;28;20210;-66
2022/01/22 11:32:09;;;;;;;5.17;2.83;;;;;;;;;;5028632;28;20771;-67
2022/01/22 11:34:38;;;;;;;7.17;2.80;;;;;;;;;;5024052;28;20273;-67
2022/01/22 11:37:10;;;;;;;6.00;2.30;;;;;;;;;;5023745;28;20245;-65
2022/01/22 11:40:13;;;;;;;4.03;2.53;;;;;;;;;;5023333;28;20227;-65
2022/01/22 11:43:07;;;;;;;4.03;2.60;;;;;;;;;;5022717;28;20320;-65
2022/01/22 11:45:44;;;;;;;4.17;2.47;;;;;;;;;;5026253;28;20209;-66
2022/01/22 11:48:40;;;;;;;3.63;2.60;;;;;;;;;;5023645;28;20590;-67
2022/01/22 11:51:25;;;;;;;4.67;2.60;;;;;;;;;;5023963;28;20292;-66
2022/01/22 11:54:00;;;;;;;5.57;2.40;;;;;;;;;;5026719;28;20211;-66
2022/01/22 11:56:50;;;;;;;6.30;2.23;;;;;;;;;;5027464;28;20202;-65
2022/01/22 11:59:31;;;;;;;9.17;2.93;;;;;;;;;;5021334;28;20207;-65
2022/01/22 12:02:07;;;;;;;5.63;2.83;;;;;;;;;;5011736;28;20219;-66
2022/01/22 12:04:49;;;;;;;5.70;2.53;;;;;;;;;;5019201;28;20206;-66
2022/01/22 12:07:21;;;;;;;4.80;2.87;;;;;;;;;;5026903;28;20202;-65
2022/01/22 12:10:14;;;;;;;5.07;2.67;;;;;;;;;;5008814;28;20202;-65
2022/01/22 12:15:42;;;;;;;5.70;2.87;;;;;;;;;;5025498;28;21614;-65
2022/01/22 12:18:17;;;;;;;6.47;2.77;;;;;;;;;;5026147;28;20321;-65
2022/01/22 12:23:36;;;;;;;4.37;2.13;;;;;;;;;;5022259;28;20256;-65
2022/01/22 12:26:05;;;;;;;5.37;2.83;;;;;;;;;;5028576;28;20198;-64
2022/01/22 12:28:44;;;;;;;5.10;2.40;;;;;;;;;;5026360;28;20701;-64
2022/01/22 12:31:28;;;;;;;3.93;2.57;;;;;;;;;;5016965;28;20271;-66
2022/01/22 12:33:57;;;;;;;6.80;2.90;;;;;;;;;;5005797;28;20235;-66
2022/01/22 12:36:41;;;;;;;4.43;2.47;;;;;;;;;;5002694;28;20200;-66
2022/01/22 12:39:19;;;;;;;4.77;2.50;;;;;;;;;;4988634;28;20218;-67
2022/01/22 12:41:57;;;;;;;4.00;2.40;;;;;;;;;;5004861;28;20203;-65
2022/01/22 12:44:31;;;;;;;5.63;3.17;;;;;;;;;;4994993;28;20202;-65
2022/01/22 12:47:06;;;;;;;5.67;2.47;;;;;;;;;;5004705;28;20207;-67
2022/01/22 12:49:36;;;;;;;4.77;2.77;;;;;;;;;;5002384;28;20226;-67
2022/01/22 12:52:26;;;;;;;5.07;2.80;;;;;;;;;;4996895;28;20239;-66
2022/01/22 12:55:00;;;;;;;3.03;2.20;;;;;;;;;;5005996;28;20218;-66
2022/01/22 12:57:59;;;;;;;5.13;2.47;;;;;;;;;;4990397;28;20224;-65
2022/01/22 13:00:30;;;;;;;3.70;2.77;;;;;;;;;;5002270;28;20196;-66
2022/01/22 13:03:14;;;;;;;4.10;2.50;;;;;;;;;;5000040;28;20223;-66
2022/01/22 13:05:50;;;;;;;4.00;2.40;;;;;;;;;;5002109;28;20202;-67
2022/01/22 13:08:48;;;;;;;3.57;2.43;;;;;;;;;;4999581;28;20602;-67
2022/01/22 13:11:24;;;;;;;4.20;2.40;;;;;;;;;;5006550;28;20754;-67
2022/01/22 13:14:05;;;;;;;3.53;2.23;;;;;;;;;;5003874;28;20889;-67
2022/01/22 13:16:48;;;;;;;4.90;2.40;;;;;;;;;;5003062;28;20219;-65
2022/01/22 13:19:18;;;;;;;3.63;2.20;;;;;;;;;;5004661;28;20222;-65
2022/01/22 13:21:52;;;;;;;4.00;2.73;;;;;;;;;;5007149;28;20212;-65
2022/01/22 13:24:25;;;;;;;3.87;2.20;;;;;;;;;;5002308;28;20219;-65
2022/01/22 13:27:06;;;;;;;2.90;2.30;;;;;;;;;;5005958;28;20214;-66
2022/01/22 13:29:41;;;;;;;5.23;2.70;;;;;;;;;;5001501;28;20207;-67
2022/01/22 13:32:25;;;;;;;4.40;2.60;;;;;;;;;;5021985;28;20226;-66
2022/01/22 13:49:50;;;;;;;3.07;2.37;;;;;;;;;;4979543;28;20226;-66
2022/01/22 13:52:31;;;;;;;3.43;2.70;;;;;;;;;;5022668;28;20207;-66
2022/01/22 13:55:00;;;;;;;3.83;2.77;;;;;;;;;;5016178;28;20599;-65
2022/01/22 13:57:34;;;;;;;5.17;3.17;;;;;;;;;;5038084;28;20215;-65
2022/01/22 14:00:18;;;;;;;2.57;2.30;;;;;;;;;;5023546;28;20195;-65
2022/01/22 14:03:44;;;;;;;3.27;2.60;;;;;;;;;;5023497;28;20305;-66
2022/01/22 14:06:20;;;;;;;5.10;3.00;;;;;;;;;;5025825;28;20233;-65
2022/01/22 14:09:14;;;;;;;3.20;2.40;;;;;;;;;;5019589;28;20312;-65
2022/01/22 14:12:23;;;;;;;3.50;2.70;;;;;;;;;;5022035;28;20207;-64
2022/01/22 14:15:05;;;;;;;3.13;2.53;;;;;;;;;;5009015;28;20221;-65
2022/01/22 14:18:05;;;;;;;3.20;2.80;;;;;;;;;;5018530;28;20192;-65
2022/01/22 14:20:36;;;;;;;2.87;2.50;;;;;;;;;;5032995;28;20202;-63
2022/01/22 14:23:25;;;;;;;3.07;2.77;;;;;;;;;;5019805;28;20207;-63
2022/01/22 14:25:55;;;;;;;3.70;2.27;;;;;;;;;;5012412;28;20215;-65
2022/01/22 14:28:47;;;;;;;3.50;2.70;;;;;;;;;;5021484;28;20214;-65
2022/01/22 14:31:27;;;;;;;4.23;2.67;;;;;;;;;;5024940;28;20247;-64
2022/01/22 14:33:59;;;;;;;2.63;2.43;;;;;;;;;;5030970;28;20203;-64
2022/01/22 14:36:31;;;;;;;3.80;2.80;;;;;;;;;;5012050;28;20691;-64
2022/01/22 14:39:13;;;;;;;3.77;3.37;;;;;;;;;;5028986;28;20225;-66
2022/01/22 14:44:45;;;;;;;3.67;3.10;;;;;;;;;;5018963;28;20206;-66
2022/01/22 14:47:15;;;;;;;4.90;3.10;;;;;;;;;;5023790;28;20265;-64
2022/01/22 14:50:07;;;;;;;5.33;2.83;;;;;;;;;;5021763;28;20211;-64
2022/01/22 14:52:57;;;;;;;3.83;3.03;;;;;;;;;;5020848;28;20221;-66
2022/01/22 14:55:28;;;;;;;3.63;3.20;;;;;;;;;;5003619;28;20211;-66
2022/01/22 14:58:00;;;;;;;4.23;3.47;;;;;;;;;;5008247;28;20214;-66
2022/01/22 15:00:31;;;;;;;3.63;2.90;;;;;;;;;;5018862;28;20274;-65
2022/01/22 15:03:24;;;;;;;4.97;3.10;;;;;;;;;;5022847;28;20206;-66
2022/01/22 15:05:52;;;;;;;3.60;3.07;;;;;;;;;;5025872;28;20214;-66
2022/01/22 15:08:20;;;;;;;3.37;2.73;;;;;;;;;;5027344;28;20207;-64
2022/01/22 15:10:53;;;;;;;5.17;3.47;;;;;;;;;;5026509;28;20276;-67
2022/01/22 15:13:22;;;;;;;5.23;3.50;;;;;;;;;;5015876;28;20299;-67
2022/01/22 15:15:58;;;;;;;4.10;3.20;;;;;;;;;;5025525;28;20637;-68
2022/01/22 15:21:32;;;;;;;4.57;3.00;;;;;;;;;;4992877;28;20941;-66
2022/01/22 15:24:19;;;;;;;3.13;2.80;;;;;;;;;;5024293;28;20277;-67
2022/01/22 15:27:04;;;;;;;3.47;3.17;;;;;;;;;;5030624;28;20194;-68
2022/01/22 15:29:42;;;;;;;3.73;3.13;;;;;;;;;;5021393;28;20203;-67
2022/01/22 15:32:34;;;;;;;3.37;3.03;;;;;;;;;;5025190;28;20231;-68
2022/01/22 15:35:32;;;;;;;3.50;3.20;;;;;;;;;;5025701;28;20896;-67
2022/01/22 15:38:05;;;;;;;3.67;3.20;;;;;;;;;;5029558;28;20239;-67
2022/01/22 15:40:56;;;;;;;3.47;3.17;;;;;;;;;;5023662;28;20211;-68
2022/01/22 15:43:35;;;;;;;3.00;2.80;;;;;;;;;;5037942;28;20213;-66
2022/01/22 15:46:06;;;;;;;3.80;2.83;;;;;;;;;;5032367;28;20242;-66
2022/01/22 15:48:34;;;;;;;4.20;3.43;;;;;;;;;;5017290;28;20211;-68
2022/01/22 15:51:09;;;;;;;3.10;2.80;;;;;;;;;;5010228;28;20640;-69
2022/01/22 15:53:42;;;;;;;3.90;3.20;;;;;;;;;;5028740;28;20195;-69
2022/01/22 15:56:19;;;;;;;4.13;3.07;;;;;;;;;;5028160;28;20207;-69
2022/01/22 15:58:52;;;;;;;2.93;2.73;;;;;;;;;;5032609;28;20580;-67
2022/01/22 16:01:22;;;;;;;3.90;3.37;;;;;;;;;;5018183;28;20227;-69
2022/01/22 16:03:57;;;;;;;3.67;3.00;;;;;;;;;;5019461;28;20192;-70
2022/01/22 16:09:18;;;;;;;2.97;2.63;;;;;;;;;;5023564;28;20199;-69
2022/01/22 16:12:12;;;;;;;3.70;3.40;;;;;;;;;;5020064;28;20257;-68
2022/01/22 16:14:49;;;;;;;3.30;3.00;;;;;;;;;;5020700;28;20222;-66
2022/01/22 16:17:27;;;;;;;3.27;2.90;;;;;;;;;;5026855;28;20534;-66
2022/01/22 16:20:01;;;;;;;3.83;3.17;;;;;;;;;;5021752;28;20234;-69
2022/01/22 16:22:34;;;;;;;3.30;3.00;;;;;;;;;;5018020;28;20218;-68
2022/01/22 16:25:04;;;;;;;3.93;3.10;;;;;;;;;;5020189;28;20207;-68
2022/01/22 16:27:34;;;;;;;3.70;3.20;;;;;;;;;;5016575;28;20783;-68
2022/01/22 16:30:06;;;;;;;2.83;2.63;;;;;;;;;;5027477;28;20215;-68
2022/01/22 16:32:41;;;;;;;4.00;2.60;;;;;;;;;;5005575;28;20316;-68
2022/01/22 16:35:12;;;;;;;3.07;2.77;;;;;;;;;;5008616;28;20215;-68
2022/01/22 16:37:43;;;;;;;3.30;3.00;;;;;;;;;;4989263;28;20215;-68
2022/01/22 16:40:20;;;;;;;3.40;3.10;;;;;;;;;;5013560;28;20223;-68
2022/01/22 16:43:05;;;;;;;3.13;2.80;;;;;;;;;;5006572;28;20274;-67
2022/01/22 16:54:35;;;;;;;4.03;3.63;;;;;;;;;;4999024;28;20220;-67
2022/01/22 16:56:49;;;;;;;3.97;3.60;;;;;;;;;;5002380;28;20283;-68
2022/01/22 16:59:41;;;;;;;5.17;4.40;;;;;;;;;;4995812;28;20232;-67
2022/01/22 17:02:25;;;;;;;4.93;4.53;;;;;;;;;;5001568;28;20212;-67
2022/01/22 17:05:04;;;;;;;5.90;5.30;;;;;;;;;;5020038;28;20210;-67
2022/01/22 17:08:02;;;;;;;5.53;4.93;;;;;;;;;;4993448;28;20199;-67
2022/01/22 17:11:10;;;;;;;6.50;5.00;;;;;;;;;;5013675;28;20204;-67
2022/01/22 17:16:23;;;;;;;6.00;5.50;;;;;;;;;;5005391;28;20195;-67
2022/01/22 17:18:54;;;;;;;6.30;5.70;;;;;;;;;;5029150;28;20223;-67
2022/01/22 17:21:29;;;;;;;6.33;5.73;;;;;;;;;;5008146;28;20227;-67
2022/01/22 17:24:03;;;;;;;6.30;5.70;;;;;;;;;;5007561;28;20206;-67
2022/01/22 17:26:36;;;;;;;6.10;5.60;;;;;;;;;;5000830;28;20601;-68
2022/01/22 17:29:11;;;;;;;5.60;5.10;;;;;;;;;;5015565;28;20228;-67
2022/01/22 17:31:40;;;;;;;5.83;5.23;;;;;;;;;;5019808;28;20253;-67
2022/01/22 17:34:12;;;;;;;5.87;5.00;;;;;;;;;;5026455;28;20335;-67
2022/01/22 17:36:42;;;;;;;4.73;4.30;;;;;;;;;;5025712;28;20689;-67
2022/01/22 17:39:17;;;;;;;5.10;4.70;;;;;;;;;;5009375;28;20207;-67